Time;durP1;ratioP1;P1;durP2;ratioP2;P2;SDS_P1;SDS_P2;PMS_P1;PMS_P2;Temp;Humidity;BMP_temperature;BMP_pressure;BME280_temperature;BME280_humidity;BME280_pressure;Samples;Min_cycle;Max_cycle;Signal;HPM_P1;HPM_P2
2021/09/09 00:02:14;;;;;;;16.70;14.90;;;18.30;99.90;;;;;;5070601;28;20598;-82
2021/09/09 00:04:41;;;;;;;14.73;12.90;;;18.30;99.90;;;;;;5069793;28;20660;-82
2021/09/09 00:07:08;;;;;;;13.75;12.35;;;18.20;99.90;;;;;;5060505;28;20217;-87
2021/09/09 00:09:35;;;;;;;15.27;13.55;;;18.20;99.90;;;;;;5050909;28;20209;-86
2021/09/09 00:12:03;;;;;;;16.05;13.77;;;18.20;99.90;;;;;;5069945;28;20213;-86
2021/09/09 00:14:30;;;;;;;13.50;12.10;;;18.20;99.90;;;;;;5070357;28;20590;-88
2021/09/09 00:16:57;;;;;;;13.63;12.15;;;18.20;99.90;;;;;;5069866;28;20193;-87
2021/09/09 00:19:24;;;;;;;12.52;11.23;;;18.10;99.90;;;;;;5071235;28;20832;-84
2021/09/09 00:21:51;;;;;;;13.75;12.32;;;18.10;99.90;;;;;;5050789;28;20209;-82
2021/09/09 00:24:17;;;;;;;15.20;13.60;;;18.10;99.90;;;;;;5050785;28;20260;-81
2021/09/09 00:26:44;;;;;;;13.57;12.18;;;18.00;99.90;;;;;;5060524;28;20236;-85
2021/09/09 00:29:12;;;;;;;15.52;13.55;;;18.00;99.90;;;;;;5070822;28;20209;-86
2021/09/09 00:31:39;;;;;;;15.38;13.48;;;17.90;99.90;;;;;;5070430;28;20227;-86
2021/09/09 00:34:06;;;;;;;13.82;12.30;;;17.90;99.90;;;;;;5069273;28;20220;-87
2021/09/09 00:36:33;;;;;;;14.00;12.48;;;17.90;99.90;;;;;;5055332;28;20201;-88
2021/09/09 00:39:00;;;;;;;15.35;13.20;;;17.80;99.90;;;;;;5050585;28;20280;-88
2021/09/09 00:41:29;;;;;;;13.35;11.95;;;17.80;99.90;;;;;;5069663;28;20209;-80
2021/09/09 00:43:55;;;;;;;13.75;12.35;;;17.80;99.90;;;;;;5069984;28;20205;-82
2021/09/09 00:46:24;;;;;;;14.32;12.93;;;17.80;99.90;;;;;;5051760;28;20559;-84
2021/09/09 00:48:51;;;;;;;14.30;12.65;;;17.70;99.90;;;;;;5049509;28;20206;-86
2021/09/09 00:51:18;;;;;;;14.43;12.98;;;17.70;99.90;;;;;;5049406;28;20213;-83
2021/09/09 00:53:46;;;;;;;15.20;13.70;;;17.70;99.90;;;;;;5062519;28;20229;-85
2021/09/09 00:56:13;;;;;;;12.32;10.93;;;17.60;99.90;;;;;;5048661;28;20209;-82
2021/09/09 00:58:44;;;;;;;12.73;11.35;;;17.60;99.90;;;;;;5101283;22;20240;-87
2021/09/09 01:01:12;;;;;;;13.93;12.25;;;17.60;99.90;;;;;;5097458;22;20236;-85
2021/09/09 01:03:40;;;;;;;14.25;12.48;;;17.60;99.90;;;;;;5089999;28;20200;-86
2021/09/09 01:06:07;;;;;;;16.10;13.85;;;17.50;99.90;;;;;;5086533;22;20235;-85
2021/09/09 01:08:34;;;;;;;15.32;13.70;;;17.50;99.90;;;;;;5090461;28;20205;-87
2021/09/09 01:11:01;;;;;;;15.27;13.63;;;17.50;99.90;;;;;;5090401;28;20301;-80
2021/09/09 01:13:28;;;;;;;14.73;12.65;;;17.40;99.90;;;;;;5070655;28;20217;-80
2021/09/09 01:15:55;;;;;;;14.73;13.20;;;17.40;99.90;;;;;;5068991;28;20205;-83
2021/09/09 01:18:22;;;;;;;15.52;13.30;;;17.40;99.90;;;;;;5070343;28;20201;-86
2021/09/09 01:20:50;;;;;;;14.38;12.95;;;17.40;99.90;;;;;;5080863;28;20215;-81
2021/09/09 01:23:18;;;;;;;13.75;12.20;;;17.30;99.90;;;;;;5090270;28;20208;-82
2021/09/09 01:25:46;;;;;;;15.75;14.05;;;17.30;99.90;;;;;;5073516;28;20205;-89
2021/09/09 01:28:13;;;;;;;15.50;13.48;;;17.30;99.90;;;;;;5069216;28;20244;-84
2021/09/09 01:30:40;;;;;;;15.90;14.23;;;17.30;99.90;;;;;;5068361;28;20929;-84
2021/09/09 01:33:07;;;;;;;15.27;13.70;;;17.30;99.90;;;;;;5068350;28;20201;-81
2021/09/09 01:35:33;;;;;;;17.15;14.48;;;17.30;99.90;;;;;;5068973;28;20216;-80
2021/09/09 01:38:01;;;;;;;16.20;14.18;;;17.30;99.90;;;;;;5069571;28;20201;-80
2021/09/09 01:40:30;;;;;;;15.45;13.60;;;17.20;99.90;;;;;;5068580;28;20215;-85
2021/09/09 01:43:00;;;;;;;17.13;15.23;;;17.20;99.90;;;;;;5071325;28;20202;-82
2021/09/09 01:45:27;;;;;;;18.23;13.68;;;17.20;99.90;;;;;;5070133;28;20205;-81
2021/09/09 01:47:54;;;;;;;18.88;14.68;;;17.20;99.90;;;;;;5068332;28;20225;-82
2021/09/09 01:50:21;;;;;;;16.15;14.45;;;17.20;99.90;;;;;;5069038;28;20202;-82
2021/09/09 01:52:48;;;;;;;16.73;14.23;;;17.20;99.90;;;;;;5076699;28;20235;-83
2021/09/09 01:55:15;;;;;;;17.58;15.50;;;17.10;99.90;;;;;;5085680;28;20200;-87
2021/09/09 01:57:42;;;;;;;17.15;14.48;;;17.20;99.90;;;;;;5086446;28;20201;-85
2021/09/09 02:00:12;;;;;;;19.90;15.75;;;17.10;99.90;;;;;;5068714;28;20216;-85
2021/09/09 02:02:39;;;;;;;16.63;14.88;;;17.10;99.90;;;;;;5068815;28;20208;-83
2021/09/09 02:05:06;;;;;;;18.85;15.95;;;17.10;99.90;;;;;;5088813;28;20231;-84
2021/09/09 02:07:33;;;;;;;15.18;13.10;;;17.10;99.90;;;;;;5081611;28;20651;-83
2021/09/09 02:10:00;;;;;;;16.90;13.88;;;17.00;99.90;;;;;;5069581;28;20315;-86
2021/09/09 02:12:27;;;;;;;18.35;15.50;;;17.00;99.90;;;;;;5070393;28;20204;-82
2021/09/09 02:14:54;;;;;;;17.38;14.55;;;17.00;99.90;;;;;;5075539;28;20207;-84
2021/09/09 02:17:22;;;;;;;18.40;14.23;;;17.00;99.90;;;;;;5090377;28;20196;-85
2021/09/09 02:19:49;;;;;;;16.15;14.27;;;17.00;99.90;;;;;;5089818;28;20216;-84
2021/09/09 02:22:16;;;;;;;18.63;15.68;;;16.90;99.90;;;;;;5089433;28;20201;-87
2021/09/09 02:24:45;;;;;;;17.52;15.60;;;16.90;99.90;;;;;;5089477;28;20196;-83
2021/09/09 02:27:13;;;;;;;18.67;16.35;;;16.90;99.90;;;;;;5090479;28;20230;-83
2021/09/09 02:29:41;;;;;;;16.55;14.80;;;16.90;99.90;;;;;;5069479;28;20886;-85
2021/09/09 02:32:08;;;;;;;17.20;14.15;;;16.90;99.90;;;;;;5069510;28;20228;-83
2021/09/09 02:34:37;;;;;;;19.50;16.33;;;16.90;99.90;;;;;;5070424;28;20193;-87
2021/09/09 02:37:05;;;;;;;17.95;14.77;;;16.90;99.90;;;;;;5071142;28;20201;-82
2021/09/09 02:39:32;;;;;;;16.90;14.73;;;16.80;99.90;;;;;;5083302;28;20514;-84
2021/09/09 02:41:58;;;;;;;15.82;14.13;;;16.80;99.90;;;;;;5093179;28;20236;-83
2021/09/09 02:44:25;;;;;;;16.05;14.35;;;16.80;99.90;;;;;;5093348;28;20211;-89
2021/09/09 02:46:52;;;;;;;16.48;13.75;;;16.80;99.90;;;;;;5092715;28;20225;-82
2021/09/09 02:49:19;;;;;;;16.45;14.75;;;16.80;99.90;;;;;;5092809;28;20200;-86
2021/09/09 02:51:47;;;;;;;17.95;14.85;;;16.80;99.90;;;;;;5092872;28;20200;-82
2021/09/09 02:54:14;;;;;;;17.90;14.32;;;16.70;99.90;;;;;;5082304;28;20479;-82
2021/09/09 02:56:40;;;;;;;17.35;14.30;;;16.70;99.90;;;;;;5093206;28;20207;-83
2021/09/09 02:59:08;;;;;;;18.17;15.63;;;16.60;99.90;;;;;;5079684;28;20213;-88
2021/09/09 03:01:34;;;;;;;17.90;15.48;;;16.60;99.90;;;;;;5073110;28;20204;-82
2021/09/09 03:04:01;;;;;;;16.27;14.57;;;16.60;99.90;;;;;;5090097;28;20219;-81
2021/09/09 03:06:28;;;;;;;18.20;16.27;;;16.60;99.90;;;;;;5092575;28;20239;-83
2021/09/09 03:08:56;;;;;;;19.10;15.87;;;16.60;99.90;;;;;;5092580;28;20220;-86
2021/09/09 03:11:23;;;;;;;20.03;17.37;;;16.60;99.90;;;;;;5092865;28;20288;-82
2021/09/09 03:13:50;;;;;;;16.65;14.85;;;16.60;99.90;;;;;;5092821;28;20208;-83
2021/09/09 03:16:17;;;;;;;17.15;14.75;;;16.60;99.90;;;;;;5077180;28;20213;-82
2021/09/09 03:18:43;;;;;;;19.13;16.88;;;16.50;99.90;;;;;;5072448;28;20205;-84
2021/09/09 03:21:10;;;;;;;19.92;15.85;;;16.50;99.90;;;;;;5072572;28;20224;-82
2021/09/09 03:23:37;;;;;;;20.17;16.83;;;16.50;99.90;;;;;;5077599;28;20207;-83
2021/09/09 03:26:05;;;;;;;20.80;17.67;;;16.50;99.90;;;;;;5092737;28;20216;-82
2021/09/09 03:28:32;;;;;;;21.27;18.25;;;16.50;99.90;;;;;;5092362;28;20225;-86
2021/09/09 03:30:59;;;;;;;19.00;16.95;;;16.50;99.90;;;;;;5092324;28;20231;-84
2021/09/09 03:33:26;;;;;;;20.88;17.15;;;16.50;99.90;;;;;;5073512;28;20549;-81
2021/09/09 03:35:53;;;;;;;21.25;17.38;;;16.50;99.90;;;;;;5071381;28;20902;-82
2021/09/09 03:38:19;;;;;;;22.07;17.40;;;16.50;99.90;;;;;;5076707;28;20201;-84
2021/09/09 03:40:46;;;;;;;19.67;17.58;;;16.50;99.90;;;;;;5071562;28;20205;-85
2021/09/09 03:43:14;;;;;;;19.80;15.73;;;16.50;99.90;;;;;;5084606;28;20194;-83
2021/09/09 03:45:41;;;;;;;19.63;16.92;;;16.40;99.90;;;;;;5088958;28;20196;-84
2021/09/09 03:48:08;;;;;;;21.30;18.38;;;16.40;99.90;;;;;;5086216;28;20658;-82
2021/09/09 03:50:35;;;;;;;20.27;17.67;;;16.40;99.90;;;;;;5082588;28;20206;-84
2021/09/09 03:53:01;;;;;;;22.42;18.73;;;16.40;99.90;;;;;;5083794;28;20228;-83
2021/09/09 03:55:28;;;;;;;20.85;17.48;;;16.40;99.90;;;;;;5090429;28;20204;-86
2021/09/09 03:57:55;;;;;;;21.20;17.85;;;16.40;99.90;;;;;;5078349;28;20300;-86
2021/09/09 04:00:23;;;;;;;22.05;17.83;;;16.30;99.90;;;;;;5069435;28;20208;-84
2021/09/09 04:02:50;;;;;;;21.52;18.40;;;16.30;99.90;;;;;;5069492;28;20197;-82
2021/09/09 04:05:17;;;;;;;21.53;18.60;;;16.30;99.90;;;;;;5069273;28;20209;-82
2021/09/09 04:07:43;;;;;;;18.83;16.83;;;16.30;99.90;;;;;;5069095;28;20236;-86
2021/09/09 04:10:11;;;;;;;20.95;18.27;;;16.30;99.90;;;;;;5069462;28;20197;-85
2021/09/09 04:12:40;;;;;;;21.13;18.35;;;16.30;99.90;;;;;;5069375;28;20197;-87
2021/09/09 04:15:08;;;;;;;21.17;18.93;;;16.30;99.90;;;;;;5069461;28;20201;-86
2021/09/09 04:17:37;;;;;;;22.40;18.95;;;16.30;99.90;;;;;;5069754;28;20193;-85
2021/09/09 04:20:04;;;;;;;19.70;17.52;;;16.30;99.90;;;;;;5069426;28;20209;-85
2021/09/09 04:22:31;;;;;;;23.40;20.52;;;16.30;99.90;;;;;;5070157;28;20197;-85
2021/09/09 04:24:58;;;;;;;23.90;19.63;;;16.30;99.90;;;;;;5069200;28;20258;-83
2021/09/09 04:27:25;;;;;;;22.98;19.40;;;16.30;99.90;;;;;;5069327;28;20217;-84
2021/09/09 04:29:52;;;;;;;25.20;20.40;;;16.30;99.90;;;;;;5069566;28;20201;-82
2021/09/09 04:32:20;;;;;;;24.10;21.10;;;16.30;99.90;;;;;;5069380;28;20194;-84
2021/09/09 04:34:48;;;;;;;21.93;19.37;;;16.30;99.90;;;;;;5067606;28;20212;-83
2021/09/09 04:37:15;;;;;;;25.10;21.30;;;16.30;99.90;;;;;;5067786;28;20216;-85
2021/09/09 04:39:42;;;;;;;26.60;22.55;;;16.30;99.90;;;;;;5066658;28;20205;-84
2021/09/09 04:42:09;;;;;;;24.95;20.45;;;16.30;99.90;;;;;;5066607;28;20201;-85
2021/09/09 04:44:35;;;;;;;23.58;19.48;;;16.30;99.90;;;;;;5068334;28;20466;-81
2021/09/09 04:47:02;;;;;;;25.65;20.75;;;16.30;99.90;;;;;;5068604;28;20209;-83
2021/09/09 04:49:29;;;;;;;25.15;20.98;;;16.30;99.90;;;;;;5074573;28;20208;-85
2021/09/09 04:51:57;;;;;;;26.38;21.70;;;16.30;99.90;;;;;;5070053;28;20241;-83
2021/09/09 04:54:24;;;;;;;25.08;20.77;;;16.30;99.90;;;;;;5080355;28;20227;-82
2021/09/09 04:56:51;;;;;;;25.45;21.73;;;16.30;99.90;;;;;;5083696;28;20581;-82
2021/09/09 04:59:18;;;;;;;23.90;20.63;;;16.30;99.90;;;;;;5085170;28;20207;-81
2021/09/09 05:01:44;;;;;;;23.20;20.40;;;16.30;99.90;;;;;;5086664;28;20199;-83
2021/09/09 05:04:11;;;;;;;24.20;19.97;;;16.30;99.90;;;;;;5084655;28;20204;-84
2021/09/09 05:06:38;;;;;;;23.38;20.73;;;16.30;99.90;;;;;;5067522;28;20233;-82
2021/09/09 05:09:06;;;;;;;24.77;20.50;;;16.30;99.90;;;;;;5068336;28;20236;-83
2021/09/09 05:11:33;;;;;;;23.70;20.45;;;16.30;99.90;;;;;;5067776;28;20213;-82
2021/09/09 05:14:00;;;;;;;24.73;21.17;;;16.30;99.90;;;;;;5067603;28;20205;-83
2021/09/09 05:16:27;;;;;;;26.13;21.45;;;16.30;99.90;;;;;;5087925;28;20204;-83
2021/09/09 05:18:54;;;;;;;25.42;21.05;;;16.20;99.90;;;;;;5087640;28;20204;-83
2021/09/09 05:21:21;;;;;;;25.80;21.92;;;16.20;99.90;;;;;;5088197;28;20208;-84
2021/09/09 05:23:48;;;;;;;22.75;19.92;;;16.20;99.90;;;;;;5070285;28;20220;-85
2021/09/09 05:26:16;;;;;;;24.00;20.10;;;16.20;99.90;;;;;;5068178;28;20620;-86
2021/09/09 05:28:43;;;;;;;23.30;20.80;;;16.20;99.90;;;;;;5068170;28;20228;-87
2021/09/09 05:31:09;;;;;;;23.50;19.90;;;16.20;99.90;;;;;;5069733;28;20234;-85
2021/09/09 05:33:36;;;;;;;22.92;19.50;;;16.10;99.90;;;;;;5068137;28;20217;-84
2021/09/09 05:36:03;;;;;;;24.45;20.92;;;16.20;99.90;;;;;;5067856;28;20209;-87
2021/09/09 05:38:30;;;;;;;26.98;22.02;;;16.20;99.90;;;;;;5066806;28;20217;-84
2021/09/09 05:40:57;;;;;;;23.40;20.27;;;16.20;99.90;;;;;;5066634;28;20205;-85
2021/09/09 05:43:25;;;;;;;23.83;20.00;;;16.20;99.90;;;;;;5068455;28;20217;-89
2021/09/09 05:45:52;;;;;;;26.40;21.33;;;16.20;99.90;;;;;;5069787;28;20185;-87
2021/09/09 05:48:18;;;;;;;28.60;22.60;;;16.20;99.90;;;;;;5070306;28;20228;-87
2021/09/09 05:50:45;;;;;;;28.13;22.17;;;16.20;99.90;;;;;;5069578;28;20209;-87
2021/09/09 05:53:12;;;;;;;26.13;21.73;;;16.30;99.90;;;;;;5080815;28;20224;-86
2021/09/09 05:55:39;;;;;;;23.00;19.50;;;16.30;99.90;;;;;;5082802;28;20617;-85
2021/09/09 05:58:05;;;;;;;30.13;24.10;;;16.30;99.90;;;;;;5070096;28;20201;-82
2021/09/09 06:00:34;;;;;;;28.05;21.50;;;16.30;99.90;;;;;;5070592;28;20201;-84
2021/09/09 06:03:02;;;;;;;25.35;21.25;;;16.40;99.90;;;;;;5071185;28;20219;-85
2021/09/09 06:05:29;;;;;;;23.23;20.73;;;16.40;99.90;;;;;;5070288;28;20241;-84
2021/09/09 06:07:56;;;;;;;24.53;20.90;;;16.40;99.90;;;;;;5070070;28;22160;-87
2021/09/09 06:10:23;;;;;;;27.20;23.15;;;16.50;99.90;;;;;;5070597;28;20232;-88
2021/09/09 06:12:50;;;;;;;25.75;21.77;;;16.50;99.90;;;;;;5070186;28;20910;-88
2021/09/09 06:15:17;;;;;;;27.00;23.05;;;16.50;99.90;;;;;;5070605;28;20480;-88
2021/09/09 06:17:45;;;;;;;26.67;23.63;;;16.50;99.90;;;;;;5084671;28;20204;-86
2021/09/09 06:20:14;;;;;;;32.23;26.20;;;16.60;99.90;;;;;;5072328;28;20216;-82
2021/09/09 06:22:42;;;;;;;33.53;26.67;;;16.60;99.90;;;;;;5070958;28;20505;-85
2021/09/09 06:25:10;;;;;;;27.58;24.05;;;16.70;99.90;;;;;;5071902;28;20270;-85
2021/09/09 06:27:37;;;;;;;26.02;23.15;;;16.70;99.90;;;;;;5078445;28;20616;-85
2021/09/09 06:30:04;;;;;;;27.42;24.58;;;16.80;99.90;;;;;;5090697;28;20625;-87
2021/09/09 06:32:31;;;;;;;29.77;24.98;;;16.80;99.90;;;;;;5090809;28;20212;-87
2021/09/09 06:34:59;;;;;;;27.00;23.55;;;16.90;99.90;;;;;;5090056;28;20207;-87
2021/09/09 06:37:26;;;;;;;29.02;23.17;;;16.90;99.90;;;;;;5091045;28;20200;-87
2021/09/09 06:39:52;;;;;;;28.83;24.63;;;17.00;99.90;;;;;;5091100;28;20205;-86
2021/09/09 06:42:19;;;;;;;26.88;22.15;;;17.00;99.90;;;;;;5090707;28;20594;-86
2021/09/09 06:44:47;;;;;;;34.15;26.35;;;17.10;99.90;;;;;;5083500;28;20213;-85
2021/09/09 06:47:13;;;;;;;29.35;24.77;;;17.10;99.90;;;;;;5088199;28;20208;-83
2021/09/09 06:49:40;;;;;;;28.33;24.35;;;17.10;99.90;;;;;;5083394;28;20636;-88
2021/09/09 06:52:09;;;;;;;32.58;24.52;;;17.20;99.90;;;;;;5089578;28;20231;-88
2021/09/09 06:54:35;;;;;;;30.50;26.02;;;17.20;99.90;;;;;;5086818;28;20212;-88
2021/09/09 06:57:02;;;;;;;29.15;25.00;;;17.30;99.90;;;;;;5074370;28;20221;-88
2021/09/09 06:59:29;;;;;;;29.25;25.20;;;17.40;99.90;;;;;;5080255;28;20205;-87
2021/09/09 07:01:56;;;;;;;29.40;24.20;;;17.40;99.90;;;;;;5089829;28;20209;-88
2021/09/09 07:04:22;;;;;;;30.38;24.20;;;17.50;99.90;;;;;;5090214;28;20585;-88
2021/09/09 07:06:50;;;;;;;28.48;23.70;;;17.60;99.90;;;;;;5068905;28;20228;-87
2021/09/09 07:09:18;;;;;;;27.95;24.27;;;17.60;99.90;;;;;;5071128;28;20277;-90
2021/09/09 07:11:45;;;;;;;28.27;24.02;;;17.70;99.90;;;;;;5070327;28;20217;-88
2021/09/09 07:14:12;;;;;;;27.30;22.60;;;17.70;99.90;;;;;;5070207;28;20947;-87
2021/09/09 07:16:38;;;;;;;28.58;24.15;;;17.80;99.90;;;;;;5069170;28;20212;-87
2021/09/09 07:19:05;;;;;;;29.63;25.17;;;17.90;99.90;;;;;;5079760;28;20269;-88
2021/09/09 07:21:32;;;;;;;31.75;26.20;;;17.90;99.90;;;;;;5090182;28;20211;-87
2021/09/09 08:49:25;;;;;;;20.92;15.43;;;23.60;99.90;;;;;;4805513;29;20279;-87
2021/09/09 08:51:52;;;;;;;17.63;15.07;;;23.80;99.90;;;;;;4984888;28;20232;-85
2021/09/09 08:54:19;;;;;;;18.90;15.10;;;23.80;99.90;;;;;;4992145;28;20898;-88
2021/09/09 08:56:46;;;;;;;17.38;15.10;;;24.00;99.90;;;;;;4991613;28;20200;-86
2021/09/09 08:59:13;;;;;;;16.15;14.13;;;24.10;99.90;;;;;;4992578;28;20208;-87
2021/09/09 09:02:00;;;;;;;14.68;13.23;;;24.30;99.90;;;;;;4992182;28;20235;-87
2021/09/09 09:04:29;;;;;;;17.48;14.65;;;24.60;99.90;;;;;;4991849;28;20237;-88
2021/09/09 09:06:56;;;;;;;16.20;14.52;;;24.70;99.90;;;;;;5011645;28;20211;-86
2021/09/09 09:09:24;;;;;;;18.02;16.20;;;24.90;99.90;;;;;;5051434;28;20244;-84
2021/09/09 09:11:52;;;;;;;17.83;15.57;;;24.90;99.90;;;;;;5054912;28;20206;-85
2021/09/09 09:14:21;;;;;;;16.05;14.45;;;25.10;99.90;;;;;;5099352;28;20925;-81
2021/09/09 09:16:49;;;;;;;13.57;12.18;;;25.30;99.90;;;;;;5088061;28;20200;-83
2021/09/09 09:19:19;;;;;;;15.48;13.90;;;25.40;99.90;;;;;;5088667;28;20205;-82
2021/09/09 09:21:50;;;;;;;18.52;15.70;;;25.60;99.90;;;;;;5099960;28;20204;-83
2021/09/09 09:24:19;;;;;;;19.00;16.15;;;25.70;99.90;;;;;;5107840;28;20264;-83
2021/09/09 09:27:09;;;;;;;20.73;16.63;;;25.70;99.90;;;;;;5107158;28;20196;-86
2021/09/09 09:29:37;;;;;;;14.65;13.15;;;25.70;99.90;;;;;;5106263;28;20212;-80
2021/09/09 09:32:12;;;;;;;16.38;14.52;;;25.80;99.90;;;;;;5107722;28;20203;-87
2021/09/09 09:34:39;;;;;;;18.00;15.57;;;25.90;99.90;;;;;;5108290;28;20246;-87
2021/09/09 09:37:07;;;;;;;16.98;14.38;;;26.10;99.90;;;;;;5090720;28;20215;-84
2021/09/09 09:39:35;;;;;;;14.10;12.40;;;26.20;99.90;;;;;;5089763;28;20207;-82
2021/09/09 09:42:04;;;;;;;18.70;15.30;;;26.30;99.90;;;;;;5108975;28;20615;-85
2021/09/09 09:44:34;;;;;;;16.90;14.90;;;26.20;99.90;;;;;;5092405;28;20204;-83
2021/09/09 09:47:13;;;;;;;16.73;14.95;;;26.20;99.90;;;;;;5087896;28;20196;-83
2021/09/09 09:49:42;;;;;;;16.30;14.25;;;26.20;99.90;;;;;;5088260;28;20223;-83
2021/09/09 09:52:19;;;;;;;18.92;15.13;;;26.20;99.90;;;;;;5101626;28;20331;-81
2021/09/09 09:54:51;;;;;;;14.70;10.90;;;26.30;99.90;;;;;;5108150;28;20195;-90
2021/09/09 09:57:18;;;;;;;14.13;12.43;;;26.40;99.90;;;;;;5100911;28;20530;-82
2021/09/09 09:59:45;;;;;;;12.70;11.27;;;26.60;99.90;;;;;;5088175;28;20193;-81
2021/09/09 10:02:12;;;;;;;20.48;14.70;;;26.80;99.90;;;;;;5088230;28;20204;-87
2021/09/09 10:04:42;;;;;;;13.20;11.00;;;26.80;99.90;;;;;;5087748;28;20211;-87
2021/09/09 10:07:12;;;;;;;17.90;14.52;;;27.00;99.90;;;;;;5088208;28;20208;-86
2021/09/09 10:09:39;;;;;;;17.88;14.55;;;26.90;99.90;;;;;;5090113;28;20209;-85
2021/09/09 10:12:07;;;;;;;15.23;12.88;;;26.80;99.90;;;;;;5090833;28;20200;-91
2021/09/09 10:14:36;;;;;;;14.90;13.05;;;26.70;99.90;;;;;;5090561;28;20204;-90
2021/09/09 10:17:03;;;;;;;19.35;16.90;;;27.10;99.90;;;;;;5090297;28;20207;-88
2021/09/09 10:19:31;;;;;;;16.40;14.30;;;27.30;99.90;;;;;;5097454;28;20204;-93
2021/09/09 10:22:12;;;;;;;20.45;16.90;;;27.40;99.90;;;;;;5111486;28;20206;-89
2021/09/09 10:24:40;;;;;;;16.35;13.70;;;27.40;99.90;;;;;;5109773;28;20203;-85
2021/09/09 10:27:23;;;;;;;19.88;17.20;;;27.50;99.90;;;;;;5110067;28;20231;-89
2021/09/09 10:29:59;;;;;;;19.17;17.30;;;27.70;99.90;;;;;;5096115;22;20250;-88
2021/09/09 10:32:56;;;;;;;22.33;17.50;;;27.80;99.90;;;;;;5086019;28;20591;-90
2021/09/09 10:35:31;;;;;;;15.02;12.02;;;27.90;99.90;;;;;;5086442;28;20196;-91
2021/09/09 10:38:33;;;;;;;12.95;11.55;;;28.00;99.90;;;;;;5089239;28;20208;-93
2021/09/09 10:41:02;;;;;;;13.60;11.93;;;28.10;99.90;;;;;;5088904;28;20192;-91
2021/09/09 10:44:01;;;;;;;20.00;15.15;;;28.20;99.90;;;;;;5087210;28;20204;-92
2021/09/09 10:46:33;;;;;;;14.73;12.57;;;28.40;99.90;;;;;;5024993;28;20217;-90
2021/09/09 10:49:08;;;;;;;10.50;9.40;;;28.50;99.90;;;;;;5057531;28;20292;-90
2021/09/09 10:51:35;;;;;;;15.40;12.27;;;28.70;99.90;;;;;;5066224;28;20758;-87
2021/09/09 10:54:04;;;;;;;11.25;9.40;;;28.80;99.90;;;;;;5070335;28;20209;-90
2021/09/09 10:56:35;;;;;;;10.50;9.52;;;29.00;99.90;;;;;;5084681;28;20208;-85
2021/09/09 10:59:10;;;;;;;10.73;9.63;;;29.10;99.90;;;;;;5091192;28;20548;-95
2021/09/09 11:01:37;;;;;;;26.85;22.25;;;29.30;99.90;;;;;;5079293;28;20276;-86
2021/09/09 11:04:06;;;;;;;23.73;18.88;;;29.20;99.90;;;;;;5072912;28;20205;-91
2021/09/09 11:06:34;;;;;;;26.63;22.90;;;29.00;99.90;;;;;;5073023;28;20280;-86
2021/09/09 11:09:14;;;;;;;22.35;18.52;;;28.80;99.90;;;;;;5086350;28;20215;-89
2021/09/09 11:11:56;;;;;;;18.23;16.33;;;28.70;99.90;;;;;;5092802;28;20851;-93
2021/09/09 11:14:24;;;;;;;20.58;18.45;;;28.70;99.90;;;;;;5093284;28;20208;-91
2021/09/09 11:16:51;;;;;;;22.40;19.38;;;28.60;99.90;;;;;;5092654;28;20200;-82
2021/09/09 11:19:22;;;;;;;21.35;17.33;;;28.60;99.90;;;;;;5079659;28;20219;-87
2021/09/09 11:21:49;;;;;;;21.13;16.73;;;28.70;99.90;;;;;;5091490;28;20228;-86
2021/09/09 11:24:18;;;;;;;20.38;17.25;;;28.70;99.90;;;;;;5073096;28;20216;-87
2021/09/09 11:26:46;;;;;;;18.45;16.23;;;28.80;99.90;;;;;;5072085;28;20209;-88
2021/09/09 11:29:15;;;;;;;19.10;15.50;;;28.80;99.90;;;;;;5091730;28;20619;-87
2021/09/09 11:31:46;;;;;;;24.63;18.52;;;28.80;99.90;;;;;;5088764;28;20208;-89
2021/09/09 11:34:13;;;;;;;31.42;20.38;;;28.60;99.90;;;;;;5072891;28;20251;-86
2021/09/09 11:36:42;;;;;;;22.58;15.95;;;28.60;99.90;;;;;;5075406;28;20205;-85
2021/09/09 11:39:10;;;;;;;19.77;14.73;;;28.50;99.90;;;;;;5088854;28;20219;-86
2021/09/09 11:41:40;;;;;;;22.33;16.95;;;28.50;99.90;;;;;;5092984;28;20597;-85
2021/09/09 11:44:10;;;;;;;16.42;12.40;;;28.60;99.90;;;;;;5091385;28;20204;-86
2021/09/09 11:46:38;;;;;;;20.08;15.25;;;28.60;99.90;;;;;;5071288;28;20213;-86
2021/09/09 11:49:09;;;;;;;17.77;13.15;;;28.50;99.90;;;;;;5071683;28;20197;-91
2021/09/09 11:51:39;;;;;;;21.48;14.55;;;28.50;99.90;;;;;;5071821;28;20193;-86
2021/09/09 11:54:08;;;;;;;22.38;17.17;;;28.40;99.90;;;;;;5072070;28;20244;-85
2021/09/09 11:56:36;;;;;;;21.05;13.77;;;28.30;99.90;;;;;;5071386;28;20601;-88
2021/09/09 11:59:08;;;;;;;16.25;13.00;;;28.30;99.90;;;;;;5072839;28;20209;-85
2021/09/09 12:01:37;;;;;;;19.10;14.23;;;28.30;99.90;;;;;;5090648;28;20185;-86
2021/09/09 12:04:06;;;;;;;20.08;12.85;;;28.30;99.90;;;;;;5084823;28;20198;-81
2021/09/09 12:06:33;;;;;;;19.70;14.77;;;28.30;99.90;;;;;;5068833;28;20208;-82
2021/09/09 12:09:00;;;;;;;21.50;16.60;;;28.20;99.90;;;;;;5068814;28;20859;-82
2021/09/09 12:11:27;;;;;;;17.70;14.57;;;28.10;99.90;;;;;;5071477;28;20367;-90
2021/09/09 12:13:54;;;;;;;21.48;12.95;;;27.90;99.90;;;;;;5071722;28;20484;-84
2021/09/09 12:16:23;;;;;;;22.77;17.75;;;27.90;99.90;;;;;;5072037;28;20193;-85
2021/09/09 12:19:02;;;;;;;21.55;16.20;;;27.90;99.90;;;;;;5071703;28;20208;-90
2021/09/09 12:21:29;;;;;;;20.23;16.52;;;27.90;99.90;;;;;;5091759;28;20653;-88
2021/09/09 12:24:05;;;;;;;20.55;14.93;;;28.00;99.90;;;;;;5084749;28;20609;-89
2021/09/09 12:26:34;;;;;;;19.55;15.00;;;27.90;99.90;;;;;;5070565;28;20201;-81
2021/09/09 12:29:11;;;;;;;18.88;13.10;;;27.80;99.90;;;;;;5070663;28;20208;-84
2021/09/09 12:31:40;;;;;;;17.27;13.18;;;27.70;99.90;;;;;;5071469;28;20237;-85
2021/09/09 12:34:12;;;;;;;19.75;13.57;;;27.60;99.90;;;;;;5065741;28;20208;-86
2021/09/09 12:36:44;;;;;;;18.10;13.75;;;27.50;99.90;;;;;;5068789;28;20296;-88
2021/09/09 12:39:12;;;;;;;17.58;13.05;;;27.40;99.90;;;;;;5071111;28;20201;-86
2021/09/09 12:41:40;;;;;;;15.07;11.45;;;27.30;99.90;;;;;;5069420;28;20618;-83
2021/09/09 12:44:12;;;;;;;18.58;11.65;;;27.30;99.90;;;;;;5083047;28;20208;-85
2021/09/09 12:46:42;;;;;;;15.77;10.80;;;27.30;99.90;;;;;;5090866;28;20197;-89
2021/09/09 12:49:12;;;;;;;18.88;11.35;;;27.10;99.90;;;;;;5069895;28;20266;-85
2021/09/09 12:51:40;;;;;;;17.75;11.23;;;27.10;99.90;;;;;;5070412;28;20221;-89
2021/09/09 12:54:08;;;;;;;16.75;11.10;;;27.00;99.90;;;;;;5087280;28;20204;-90
2021/09/09 12:56:35;;;;;;;16.58;10.70;;;27.00;99.90;;;;;;5069700;28;20205;-87
2021/09/09 12:59:02;;;;;;;16.50;10.35;;;27.00;99.90;;;;;;5070513;28;20232;-91
2021/09/09 13:01:29;;;;;;;13.68;10.07;;;26.90;99.90;;;;;;5070889;28;20201;-81
2021/09/09 13:03:57;;;;;;;13.43;9.20;;;26.90;99.90;;;;;;5069139;28;20220;-84
2021/09/09 13:06:24;;;;;;;17.00;10.60;;;26.80;99.90;;;;;;5072117;28;20200;-90
2021/09/09 13:08:51;;;;;;;21.33;10.57;;;26.80;99.90;;;;;;5069813;28;20212;-93
2021/09/09 13:11:18;;;;;;;12.63;8.35;;;26.70;99.90;;;;;;5069987;28;20256;-89
2021/09/09 13:13:45;;;;;;;16.13;9.70;;;26.60;99.90;;;;;;5068870;28;20870;-89
2021/09/09 13:16:12;;;;;;;16.90;9.70;;;26.50;99.90;;;;;;5070287;28;20201;-92
2021/09/09 13:18:40;;;;;;;21.42;10.68;;;26.50;99.90;;;;;;5070365;28;20215;-90
2021/09/09 13:21:10;;;;;;;13.80;8.93;;;26.30;99.90;;;;;;5069849;28;20205;-86
2021/09/09 13:23:37;;;;;;;14.63;8.98;;;26.10;99.90;;;;;;5084160;28;20239;-89
2021/09/09 13:26:04;;;;;;;17.35;9.82;;;25.90;99.90;;;;;;5088392;28;20189;-88
2021/09/09 13:28:31;;;;;;;16.92;10.90;;;25.90;99.90;;;;;;5085591;28;20205;-84
2021/09/09 13:30:58;;;;;;;17.27;10.43;;;25.80;99.90;;;;;;5078692;28;20247;-88
2021/09/09 13:33:25;;;;;;;18.02;10.40;;;25.60;99.90;;;;;;5088959;28;20196;-87
2021/09/09 13:35:58;;;;;;;20.30;11.02;;;25.60;99.90;;;;;;5090188;28;20208;-89
2021/09/09 13:38:27;;;;;;;17.15;10.50;;;25.50;99.90;;;;;;5070716;28;20205;-91
2021/09/09 13:40:54;;;;;;;21.85;10.65;;;25.40;99.90;;;;;;5070671;28;20197;-86
2021/09/09 13:43:21;;;;;;;24.70;11.48;;;25.40;99.90;;;;;;5070517;28;20200;-88
2021/09/09 13:45:48;;;;;;;21.13;10.90;;;25.40;99.90;;;;;;5076640;28;20209;-87
2021/09/09 13:48:15;;;;;;;19.35;12.30;;;25.30;99.90;;;;;;5090001;28;20197;-83
2021/09/09 13:50:41;;;;;;;20.70;11.90;;;25.30;99.90;;;;;;5089853;28;20220;-85
2021/09/09 13:53:08;;;;;;;17.73;10.90;;;25.10;99.90;;;;;;5086948;28;20224;-86
2021/09/09 13:55:36;;;;;;;16.58;11.98;;;25.00;99.90;;;;;;5069972;28;20212;-87
2021/09/09 13:58:03;;;;;;;18.77;11.05;;;24.90;99.90;;;;;;5070116;28;20477;-87
2021/09/09 14:00:30;;;;;;;17.60;12.13;;;25.00;99.90;;;;;;5069629;28;20296;-85